Time;durP1;ratioP1;P1;durP2;ratioP2;P2;SDS_P1;SDS_P2;PMS_P1;PMS_P2;Temp;Humidity;BMP_temperature;BMP_pressure;BME280_temperature;BME280_humidity;BME280_pressure;Samples;Min_cycle;Max_cycle;Signal;HPM_P1;HPM_P2
2022/06/30 00:01:35;;;;;;;;;;;;;;;23.90;46.51;101203.47;4881311;29;19915;-82
2022/06/30 00:04:01;;;;;;;;;;;;;;;23.89;46.29;101199.09;4885620;29;19920;-81
2022/06/30 00:06:26;;;;;;;;;;;;;;;23.89;46.48;101194.72;4880828;29;19918;-82
2022/06/30 00:08:52;;;;;;;;;;;;;;;23.88;46.46;101193.00;4895500;29;19954;-81
2022/06/30 00:11:17;;;;;;;;;;;;;;;23.90;46.33;101188.53;4876832;29;19922;-82
2022/06/30 00:13:43;;;;;;;;;;;;;;;23.87;46.90;101191.28;4878425;29;19920;-82
2022/06/30 00:16:09;;;;;;;;;;;;;;;23.91;46.38;101179.78;4879919;29;19915;-82
2022/06/30 00:18:34;;;;;;;;;;;;;;;23.91;46.52;101181.50;4876659;29;19911;-82
2022/06/30 00:21:00;;;;;;;;;;;;;;;23.94;46.44;101177.03;4877124;29;20010;-82
2022/06/30 00:23:25;;;;;;;;;;;;;;;23.93;46.52;101175.34;4893245;29;19912;-82
2022/06/30 00:25:51;;;;;;;;;;;;;;;23.94;46.69;101179.66;4876293;29;19919;-81
2022/06/30 00:28:19;;;;;;;;;;;;;;;23.95;46.53;101178.78;4861289;29;19920;-81
2022/06/30 00:30:45;;;;;;;;;;;;;;;23.91;46.69;101171.88;4877073;29;19919;-81
2022/06/30 00:33:11;;;;;;;;;;;;;;;23.87;46.84;101167.63;4881933;29;19912;-82
2022/06/30 00:35:36;;;;;;;;;;;;;;;23.89;46.89;101157.94;4900352;29;19948;-81
2022/06/30 00:38:02;;;;;;;;;;;;;;;23.88;46.92;101161.44;4893932;29;19915;-81
2022/06/30 00:40:28;;;;;;;;;;;;;;;23.91;46.71;101158.75;4882131;29;19971;-81
2022/06/30 00:42:53;;;;;;;;;;;;;;;23.95;46.59;101163.00;4903315;29;19912;-81
2022/06/30 00:45:18;;;;;;;;;;;;;;;23.97;46.71;101157.69;4877777;29;19924;-81
2022/06/30 00:47:43;;;;;;;;;;;;;;;23.97;47.05;101161.16;4861169;29;19950;-81
2022/06/30 00:50:09;;;;;;;;;;;;;;;23.93;46.81;101151.69;4875345;29;19944;-81
2022/06/30 00:52:35;;;;;;;;;;;;;;;23.96;46.95;101142.81;4874714;29;20433;-81
2022/06/30 00:55:02;;;;;;;;;;;;;;;23.95;47.07;101141.97;4893650;29;19915;-81
2022/06/30 00:57:28;;;;;;;;;;;;;;;23.92;47.38;101143.81;4877146;29;19912;-82
2022/06/30 00:59:53;;;;;;;;;;;;;;;23.91;46.96;101142.97;4862498;29;20407;-81
2022/06/30 01:02:19;;;;;;;;;;;;;;;23.92;47.13;101142.06;4893486;29;19920;-82
2022/06/30 01:04:46;;;;;;;;;;;;;;;23.94;46.93;101142.00;4874263;29;19968;-82
2022/06/30 01:07:12;;;;;;;;;;;;;;;23.93;47.08;101146.41;4876400;29;19912;-81
2022/06/30 01:15:06;;;;;;;;;;;;;;;23.93;47.54;101142.91;4893483;29;19922;-81
2022/06/30 01:17:31;;;;;;;;;;;;;;;23.90;47.16;101135.97;4878251;29;19911;-81
2022/06/30 01:19:56;;;;;;;;;;;;;;;23.92;47.32;101134.16;4878114;29;19916;-81
2022/06/30 01:22:22;;;;;;;;;;;;;;;23.93;47.16;101133.28;4879247;29;19919;-81
2022/06/30 01:24:47;;;;;;;;;;;;;;;23.91;47.44;101121.06;4864548;29;19939;-81
2022/06/30 01:27:12;;;;;;;;;;;;;;;23.92;47.61;101130.69;4905022;29;19895;-82
2022/06/30 01:29:38;;;;;;;;;;;;;;;23.89;47.44;101125.50;4888369;29;19915;-82
2022/06/30 01:32:03;;;;;;;;;;;;;;;23.85;47.91;101132.66;4864899;29;19920;-81
2022/06/30 01:34:29;;;;;;;;;;;;;;;23.83;47.94;101123.09;4897614;29;19959;-82
2022/06/30 01:36:54;;;;;;;;;;;;;;;23.84;47.84;101130.06;4904545;29;19912;-81
2022/06/30 01:39:19;;;;;;;;;;;;;;;23.84;48.08;101130.91;4870712;29;19922;-80
2022/06/30 01:41:44;;;;;;;;;;;;;;;23.87;47.56;101136.09;4864686;29;19915;-81
2022/06/30 01:44:11;;;;;;;;;;;;;;;23.87;47.79;101133.47;4877945;29;19927;-81
2022/06/30 01:46:36;;;;;;;;;;;;;;;23.86;47.85;101136.97;4879496;29;19922;-80
2022/06/30 01:49:02;;;;;;;;;;;;;;;23.83;47.89;101134.47;4895340;29;19919;-81
2022/06/30 01:51:27;;;;;;;;;;;;;;;23.86;48.27;101126.47;4877677;29;19916;-81
2022/06/30 01:53:53;;;;;;;;;;;;;;;23.85;48.08;101122.13;4884888;29;19927;-81
2022/06/30 01:56:18;;;;;;;;;;;;;;;23.85;48.15;101124.75;4872156;29;19923;-81
2022/06/30 01:58:43;;;;;;;;;;;;;;;23.87;48.28;101130.84;4886203;29;19911;-80
2022/06/30 02:01:08;;;;;;;;;;;;;;;23.89;48.24;101130.75;4885606;29;19916;-81
2022/06/30 02:03:34;;;;;;;;;;;;;;;23.91;47.90;101136.84;4882154;29;19928;-81
2022/06/30 02:05:59;;;;;;;;;;;;;;;23.92;47.87;101126.28;4880134;29;20395;-81
2022/06/30 02:08:24;;;;;;;;;;;;;;;23.92;48.11;101130.69;4864591;29;19916;-80
2022/06/30 02:10:49;;;;;;;;;;;;;;;23.93;47.78;101129.75;4880495;29;19983;-81
2022/06/30 02:13:15;;;;;;;;;;;;;;;23.95;47.56;101141.09;4883136;29;19915;-81
2022/06/30 02:15:40;;;;;;;;;;;;;;;23.94;47.97;101157.78;4904386;29;19903;-81
2022/06/30 02:18:07;;;;;;;;;;;;;;;23.91;48.25;101160.50;4903222;29;19936;-81
2022/06/30 02:20:32;;;;;;;;;;;;;;;23.92;48.02;101173.59;4881629;29;19942;-80
2022/06/30 02:22:58;;;;;;;;;;;;;;;23.91;47.90;101182.41;4895926;29;19923;-81
2022/06/30 02:25:25;;;;;;;;;;;;;;;23.89;48.01;101175.44;4896593;29;19915;-81
2022/06/30 02:27:51;;;;;;;;;;;;;;;23.90;48.14;101185.91;4895903;29;20002;-80
2022/06/30 02:30:16;;;;;;;;;;;;;;;23.88;48.01;101181.63;4894678;29;19919;-81
2022/06/30 02:32:42;;;;;;;;;;;;;;;23.86;48.25;101159.78;4878847;29;19920;-80
2022/06/30 02:35:07;;;;;;;;;;;;;;;23.90;47.98;101167.53;4878283;29;20385;-80
2022/06/30 02:37:33;;;;;;;;;;;;;;;23.89;48.11;101178.97;4894987;29;20362;-80
2022/06/30 02:39:58;;;;;;;;;;;;;;;23.83;48.08;101147.59;4863372;29;19947;-81
2022/06/30 02:42:23;;;;;;;;;;;;;;;23.85;48.01;101165.97;4862319;29;19916;-80
2022/06/30 02:44:48;;;;;;;;;;;;;;;23.88;47.84;101179.84;4863109;29;19924;-81
2022/06/30 02:47:13;;;;;;;;;;;;;;;23.88;47.96;101156.19;4883702;29;19916;-81
2022/06/30 02:49:39;;;;;;;;;;;;;;;23.81;48.12;101133.66;4869023;29;19916;-81
2022/06/30 02:52:05;;;;;;;;;;;;;;;23.84;48.12;101159.81;4863399;29;19915;-81
2022/06/30 02:54:30;;;;;;;;;;;;;;;23.86;48.04;101165.03;4877622;29;19918;-80
2022/06/30 02:56:55;;;;;;;;;;;;;;;23.86;47.93;101151.91;4894789;29;19967;-81
2022/06/30 02:59:20;;;;;;;;;;;;;;;23.76;48.30;101128.53;4876415;29;19920;-80
2022/06/30 03:01:49;;;;;;;;;;;;;;;23.78;48.20;101131.13;4877726;29;19922;-80
2022/06/30 03:04:15;;;;;;;;;;;;;;;23.85;48.19;101139.69;4893862;29;19920;-80
2022/06/30 03:06:40;;;;;;;;;;;;;;;23.85;48.20;101143.16;4892348;29;20015;-81
2022/06/30 03:09:05;;;;;;;;;;;;;;;23.83;48.02;101126.56;4875101;29;19935;-81
2022/06/30 03:11:31;;;;;;;;;;;;;;;23.77;48.06;101125.00;4876674;29;19919;-80
2022/06/30 03:13:56;;;;;;;;;;;;;;;23.82;47.95;101132.72;4877408;29;19932;-80
2022/06/30 03:16:22;;;;;;;;;;;;;;;23.86;47.98;101141.38;4876512;29;19907;-82
2022/06/30 03:18:47;;;;;;;;;;;;;;;23.84;47.89;101130.91;4894029;29;19912;-81
2022/06/30 03:21:13;;;;;;;;;;;;;;;23.83;48.01;101126.56;4876712;29;20322;-82
2022/06/30 03:23:38;;;;;;;;;;;;;;;23.83;48.25;101126.56;4890854;29;19916;-81
2022/06/30 03:26:04;;;;;;;;;;;;;;;23.84;48.20;101125.66;4874693;29;20006;-81
2022/06/30 03:28:29;;;;;;;;;;;;;;;23.84;48.29;101132.69;4891716;29;19912;-81
2022/06/30 03:30:57;;;;;;;;;;;;;;;23.84;48.17;101136.16;4891941;29;19947;-81
2022/06/30 03:33:24;;;;;;;;;;;;;;;23.85;47.92;101126.53;4891304;29;19922;-81
2022/06/30 03:35:50;;;;;;;;;;;;;;;23.84;48.22;101144.06;4892542;29;19944;-81
2022/06/30 03:38:35;;;;;;;;;;;;;;;23.81;48.01;101142.38;4902241;29;19959;-81
2022/06/30 03:41:02;;;;;;;;;;;;;;;23.81;48.01;101145.00;4879000;29;19912;-81
2022/06/30 03:43:28;;;;;;;;;;;;;;;23.82;47.92;101145.88;4876753;29;19915;-81
2022/06/30 03:45:53;;;;;;;;;;;;;;;23.80;48.35;101137.16;4893870;29;19948;-81
2022/06/30 03:48:20;;;;;;;;;;;;;;;23.79;48.11;101130.19;4875818;29;19919;-81
2022/06/30 03:50:45;;;;;;;;;;;;;;;23.79;48.02;101136.31;4875351;29;19911;-81
2022/06/30 03:53:11;;;;;;;;;;;;;;;23.81;48.15;101131.03;4859611;29;19915;-81
2022/06/30 03:55:39;;;;;;;;;;;;;;;23.83;48.17;101138.88;4891283;29;19966;-81
2022/06/30 03:58:06;;;;;;;;;;;;;;;23.80;47.85;101132.78;4891714;29;20385;-81
2022/06/30 04:00:54;;;;;;;;;;;;;;;23.80;48.23;101139.78;4873325;29;19916;-81
2022/06/30 04:03:19;;;;;;;;;;;;;;;23.80;48.04;101139.78;4891234;29;19916;-80
2022/06/30 04:05:45;;;;;;;;;;;;;;;23.82;48.18;101127.47;4902480;29;19983;-79
2022/06/30 04:08:11;;;;;;;;;;;;;;;23.84;48.30;101132.69;4885674;29;19918;-80
2022/06/30 04:10:37;;;;;;;;;;;;;;;23.84;48.00;101136.16;4886624;29;19919;-81
2022/06/30 04:13:04;;;;;;;;;;;;;;;23.84;48.01;101144.06;4878863;29;19926;-81
2022/06/30 04:15:31;;;;;;;;;;;;;;;23.82;48.21;101140.59;4892846;29;19912;-81
2022/06/30 04:17:58;;;;;;;;;;;;;;;23.83;48.49;101138.88;4876234;29;19916;-81
2022/06/30 04:20:32;;;;;;;;;;;;;;;23.83;48.11;101120.47;4894082;29;19916;-81
2022/06/30 04:26:00;;;;;;;;;;;;;;;23.80;48.54;101109.16;4891858;29;19923;-80
2022/06/30 04:28:26;;;;;;;;;;;;;;;23.80;48.38;101114.41;4876399;29;19972;-81
2022/06/30 04:33:50;;;;;;;;;;;;;;;23.84;48.16;101111.66;4893653;29;20001;-82
2022/06/30 04:36:49;;;;;;;;;;;;;;;23.84;48.60;101119.53;4870402;29;19951;-84
2022/06/30 04:39:29;;;;;;;;;;;;;;;23.89;48.31;101115.00;4848713;29;20055;-82
2022/06/30 04:41:56;;;;;;;;;;;;;;;23.95;48.16;101126.19;4882706;29;19936;-81
2022/06/30 04:44:21;;;;;;;;;;;;;;;23.97;48.13;101132.25;4883178;29;19920;-83
2022/06/30 04:46:53;;;;;;;;;;;;;;;23.98;48.37;101133.13;4881482;29;19927;-82
2022/06/30 05:31:02;;;;;;;;;;;;;;;24.07;48.57;101190.66;5771607;23;19920;-85
2022/06/30 05:33:27;;;;;;;;;;;;;;;24.04;48.42;101196.03;4889862;29;19914;-86
2022/06/30 05:35:57;;;;;;;;;;;;;;;24.01;48.65;101196.09;4890183;29;19907;-86
2022/06/30 05:38:25;;;;;;;;;;;;;;;24.20;47.83;101189.38;4889633;29;19915;-86
2022/06/30 07:03:18;;;;;;;;;;;;;;;24.08;45.81;101218.66;5667195;23;19930;-86
2022/06/30 07:05:43;;;;;;;;;;;;;;;24.02;45.67;101222.34;4886070;29;19919;-85
2022/06/30 08:10:34;;;;;;;;;;;;;;;24.38;41.70;101273.84;4902045;29;19923;-85
2022/06/30 09:52:57;;;;;;;;;;;;;;;24.10;41.85;101350.09;4898742;29;19931;-85
2022/06/30 09:55:38;;;;;;;;;;;;;;;24.20;41.40;101352.41;4901474;29;19924;-80
2022/06/30 09:58:04;;;;;;;;;;;;;;;24.19;41.51;101355.97;4963643;24;19955;-85
2022/06/30 10:05:44;;;;;;;;;;;;;;;24.22;41.16;101347.97;4906728;24;19932;-86
2022/06/30 10:49:28;;;;;;;;;;;;;;;24.04;41.76;101364.28;5009713;23;19908;-87
2022/06/30 10:51:57;;;;;;;;;;;;;;;24.07;41.67;101365.97;4904628;29;19916;-85
2022/06/30 11:12:32;;;;;;;;;;;;;;;23.42;42.23;101381.66;5649879;23;19924;-86
2022/06/30 11:14:58;;;;;;;;;;;;;;;23.61;42.40;101382.03;4886683;29;19912;-87
2022/06/30 11:17:24;;;;;;;;;;;;;;;23.53;42.59;101378.75;4886850;29;19912;-86
2022/06/30 11:20:01;;;;;;;;;;;;;;;23.55;42.56;101373.47;4887057;29;19912;-86
2022/06/30 11:22:28;;;;;;;;;;;;;;;23.61;42.41;101366.28;4887300;29;19999;-88
2022/06/30 11:24:56;;;;;;;;;;;;;;;23.75;42.47;101373.81;5216243;24;19948;-86
2022/06/30 11:32:34;;;;;;;;;;;;;;;23.84;42.79;101372.69;5867525;23;20730;-84
2022/06/30 11:35:02;;;;;;;;;;;;;;;23.71;42.85;101374.75;4852378;29;19947;-87
2022/06/30 11:37:30;;;;;;;;;;;;;;;23.68;42.84;101377.47;4868980;29;19924;-86
2022/06/30 13:42:18;;;;;;;;;;;;;;;23.86;42.91;101286.78;5326175;23;19939;-86
2022/06/30 14:18:25;;;;;;;;;;;;;;;23.55;43.08;101334.06;5597457;23;19928;-86
2022/06/30 14:47:53;;;;;;;;;;;;;;;23.66;42.70;101350.38;5528670;23;19915;-85
2022/06/30 14:50:22;;;;;;;;;;;;;;;23.63;42.78;101355.75;4904810;29;19903;-85
2022/06/30 15:39:58;;;;;;;;;;;;;;;23.24;42.84;101323.50;5528776;23;19908;-84
2022/06/30 15:45:56;;;;;;;;;;;;;;;22.71;43.08;101352.72;5763012;23;20165;-82
2022/06/30 15:48:21;;;;;;;;;;;;;;;22.76;43.26;101366.63;4888193;29;19908;-84
2022/06/30 16:19:13;;;;;;;;;;;;;;;23.24;42.49;101387.38;5428864;23;19953;-83
2022/06/30 16:21:39;;;;;;;;;;;;;;;23.25;42.60;101389.09;4887395;29;19943;-84
2022/06/30 16:24:04;;;;;;;;;;;;;;;23.23;42.20;101363.78;4886566;29;19920;-83
2022/06/30 16:26:30;;;;;;;;;;;;;;;23.18;42.40;101351.63;4886955;29;19920;-83
2022/06/30 17:27:44;;;;;;;;;;;;;;;23.65;43.29;101413.47;4906817;29;19914;-88
2022/06/30 17:53:26;;;;;;;;;;;;;;;23.61;44.46;101410.94;5136728;23;19912;-85
2022/06/30 17:55:52;;;;;;;;;;;;;;;23.62;44.54;101410.03;4890448;29;20029;-86
2022/06/30 18:49:18;;;;;;;;;;;;;;;23.53;45.62;101378.75;5819244;23;20941;-85
2022/06/30 20:29:53;;;;;;;;;;;;;;;23.59;46.17;101375.09;5873377;23;19937;-84
2022/06/30 21:43:40;;;;;;;;;;;;;;;23.46;45.89;101481.41;5304187;23;19979;-85
2022/06/30 21:46:22;;;;;;;;;;;;;;;;;;;;;
2022/06/30 22:00:15;;;;;;;;;;;;;;;23.42;45.85;101515.59;5136140;23;19928;-85
2022/06/30 22:17:55;;;;;;;;;;;;;;;23.49;46.03;101503.19;4906033;29;19927;-85
2022/06/30 22:21:05;;;;;;;;;;;;;;;23.47;45.98;101512.88;4830882;29;19921;-86
2022/06/30 22:29:21;;;;;;;;;;;;;;;23.46;45.72;101505.91;4827820;29;19927;-85
2022/06/30 22:34:57;;;;;;;;;;;;;;;23.48;45.55;101498.00;4902016;29;20286;-85
2022/06/30 22:37:56;;;;;;;;;;;;;;;23.45;46.04;101495.41;4900344;29;19902;-85
2022/06/30 23:01:30;;;;;;;;;;;;;;;23.45;45.67;101529.56;5534540;23;19907;-85
2022/06/30 23:15:44;;;;;;;;;;;;;;;23.43;45.72;101534.88;5684529;23;19908;-85
2022/06/30 23:18:09;;;;;;;;;;;;;;;23.45;45.51;101527.78;5187623;23;19923;-82
2022/06/30 23:23:13;;;;;;;;;;;;;;;23.46;45.79;101510.28;5635742;23;19923;-85
2022/06/30 23:59:18;;;;;;;;;;;;;;;23.45;45.65;101459.50;5688993;23;19948;-85
